Time;durP1;ratioP1;P1;durP2;ratioP2;P2;SDS_P1;SDS_P2;PMS_P1;PMS_P2;Temp;Humidity;BMP_temperature;BMP_pressure;BME280_temperature;BME280_humidity;BME280_pressure;Samples;Min_cycle;Max_cycle;Signal;HPM_P1;HPM_P2
2023/03/08 00:01:14;;;;;;;44.43;24.37;;;;;;;8.76;100.00;98630.22;5112491;28;20286;-60
2023/03/08 00:03:41;;;;;;;54.23;24.13;;;;;;;8.57;100.00;98625.72;5112750;28;20201;-60
2023/03/08 00:06:12;;;;;;;43.63;23.40;;;;;;;8.49;100.00;98625.09;5112811;28;20198;-59
2023/03/08 00:08:39;;;;;;;52.27;23.43;;;;;;;8.56;100.00;98628.34;5112618;28;20278;-61
2023/03/08 00:11:06;;;;;;;50.73;23.10;;;;;;;8.61;100.00;98622.09;5112599;28;20663;-61
2023/03/08 00:13:33;;;;;;;41.03;22.60;;;;;;;8.55;100.00;98631.84;5112378;28;20199;-60
2023/03/08 00:16:01;;;;;;;43.23;23.00;;;;;;;8.61;100.00;98627.28;5112303;28;20203;-59
2023/03/08 00:18:27;;;;;;;39.97;22.90;;;;;;;8.59;100.00;98621.31;5112111;28;20198;-60
2023/03/08 00:20:59;;;;;;;46.93;23.30;;;;;;;8.61;100.00;98622.09;5112350;28;20199;-60
2023/03/08 00:23:28;;;;;;;45.13;23.97;;;;;;;8.55;100.00;98617.16;5111022;28;20663;-60
2023/03/08 00:25:55;;;;;;;47.47;23.67;;;;;;;8.54;100.00;98624.97;5112120;28;20205;-59
2023/03/08 00:28:22;;;;;;;47.40;24.93;;;;;;;8.45;100.00;98631.31;5111897;28;20194;-60
2023/03/08 00:30:55;;;;;;;38.57;23.13;;;;;;;8.49;100.00;98627.69;5112237;28;20197;-59
2023/03/08 00:33:22;;;;;;;54.00;25.60;;;;;;;8.51;100.00;98633.66;5112169;28;20205;-59
2023/03/08 00:35:55;;;;;;;46.03;25.50;;;;;;;8.45;100.00;98625.28;5111879;28;20194;-59
2023/03/08 00:38:22;;;;;;;47.03;26.03;;;;;;;8.20;100.00;98620.06;5111920;28;20239;-59
2023/03/08 00:40:51;;;;;;;49.00;27.93;;;;;;;8.08;100.00;98628.22;5111679;28;20222;-59
2023/03/08 00:43:18;;;;;;;45.90;25.03;;;;;;;7.94;100.00;98623.50;5111924;28;20210;-60
2023/03/08 00:45:44;;;;;;;47.67;26.17;;;;;;;8.08;100.00;98628.22;5112218;28;20224;-60
2023/03/08 00:48:11;;;;;;;40.00;22.80;;;;;;;8.01;100.00;98625.00;5111300;28;20223;-59
2023/03/08 00:50:39;;;;;;;43.43;24.00;;;;;;;8.21;100.00;98621.75;5111550;28;20197;-60
2023/03/08 00:53:07;;;;;;;44.37;23.93;;;;;;;8.07;100.00;98618.78;5111699;28;20194;-60
2023/03/08 00:55:34;;;;;;;41.83;23.03;;;;;;;7.92;100.00;98620.97;5111105;28;20198;-61
2023/03/08 00:58:02;;;;;;;49.67;24.30;;;;;;;8.02;100.00;98616.34;5111834;28;20693;-61
2023/03/08 01:00:30;;;;;;;44.67;24.10;;;;;;;8.05;100.00;98611.06;5111472;28;20223;-61
2023/03/08 01:02:57;;;;;;;44.70;24.20;;;;;;;7.96;100.00;98606.22;5111549;28;20205;-60
2023/03/08 01:05:24;;;;;;;45.00;24.90;;;;;;;7.99;100.00;98619.88;5111307;28;20210;-60
2023/03/08 01:07:51;;;;;;;46.17;23.20;;;;;;;7.95;100.00;98612.28;5111221;28;20198;-60
2023/03/08 01:10:18;;;;;;;40.17;23.07;;;;;;;7.82;100.00;98618.72;5111527;28;20282;-60
2023/03/08 01:12:45;;;;;;;41.80;22.77;;;;;;;7.68;100.00;98615.72;5111379;28;20202;-60
2023/03/08 01:15:14;;;;;;;45.37;25.07;;;;;;;7.67;100.00;98614.91;5111114;28;20194;-59
2023/03/08 01:17:41;;;;;;;47.27;23.97;;;;;;;7.66;100.00;98613.22;5111043;28;20205;-61
2023/03/08 01:20:09;;;;;;;37.80;23.13;;;;;;;7.71;100.00;98607.88;5111175;28;20219;-60
2023/03/08 01:22:36;;;;;;;43.90;23.43;;;;;;;7.72;100.00;98605.25;5111019;28;20198;-59
2023/03/08 01:25:03;;;;;;;40.60;23.10;;;;;;;7.75;100.00;98618.09;5110734;28;20194;-60
2023/03/08 01:27:30;;;;;;;45.23;24.40;;;;;;;7.64;100.00;98621.00;5111049;28;20203;-61
2023/03/08 01:29:57;;;;;;;43.63;25.83;;;;;;;7.50;100.00;98619.75;5110912;28;20282;-61
2023/03/08 01:32:26;;;;;;;42.77;24.20;;;;;;;7.33;100.00;98620.25;5110816;28;20234;-60
2023/03/08 01:34:53;;;;;;;45.93;25.80;;;;;;;7.34;100.00;98619.34;5110546;28;20190;-60
2023/03/08 01:37:19;;;;;;;47.23;24.60;;;;;;;7.29;100.00;98624.66;5110725;28;20221;-61
2023/03/08 01:39:46;;;;;;;42.50;24.90;;;;;;;7.27;100.00;98621.28;5110815;28;20317;-61
2023/03/08 01:42:13;;;;;;;42.43;24.37;;;;;;;7.31;100.00;98628.94;5110707;28;20209;-60
2023/03/08 01:44:52;;;;;;;42.00;24.43;;;;;;;7.09;100.00;98595.19;5110718;28;20205;-60
2023/03/08 01:47:21;;;;;;;40.10;24.77;;;;;;;7.26;100.00;98626.47;5110667;28;20234;-61
2023/03/08 01:49:50;;;;;;;41.67;24.63;;;;;;;7.24;100.00;98625.69;5110673;28;20194;-59
2023/03/08 01:52:21;;;;;;;45.17;24.90;;;;;;;7.22;100.00;98625.72;5110668;28;20201;-60
2023/03/08 01:54:51;;;;;;;40.43;24.57;;;;;;;6.91;100.00;98624.91;5110779;28;20682;-59
2023/03/08 01:57:22;;;;;;;37.97;23.30;;;;;;;6.76;100.00;98633.09;5110606;28;20193;-60
2023/03/08 01:59:50;;;;;;;36.97;24.03;;;;;;;6.70;100.00;98631.53;5110626;28;20222;-59
2023/03/08 02:02:21;;;;;;;40.77;23.23;;;;;;;6.80;100.00;98626.94;5110071;28;20199;-60
2023/03/08 02:04:49;;;;;;;39.77;23.93;;;;;;;6.78;100.00;98629.56;5110727;28;20190;-59
2023/03/08 02:07:16;;;;;;;39.83;22.90;;;;;;;6.74;100.00;98627.13;5110259;28;20204;-60
2023/03/08 02:09:43;;;;;;;38.97;23.30;;;;;;;6.71;100.00;98624.63;5110245;28;20756;-59
2023/03/08 02:12:13;;;;;;;40.33;24.40;;;;;;;6.48;100.00;98608.06;5110226;28;20701;-60
2023/03/08 02:14:41;;;;;;;41.40;23.90;;;;;;;6.47;100.00;98616.66;5110150;28;20190;-60
2023/03/08 02:17:08;;;;;;;39.57;23.20;;;;;;;6.61;100.00;98618.88;5110037;28;20201;-60
2023/03/08 02:19:44;;;;;;;42.37;23.33;;;;;;;6.68;100.00;98610.09;5110402;28;20583;-60
2023/03/08 02:22:14;;;;;;;40.37;21.77;;;;;;;6.71;100.00;98622.91;5110040;28;20194;-60
2023/03/08 02:24:43;;;;;;;34.40;21.17;;;;;;;6.61;100.00;98602.56;5110021;28;20199;-58
2023/03/08 02:27:14;;;;;;;35.00;21.60;;;;;;;6.66;100.00;98619.59;5109780;28;20198;-59
2023/03/08 02:29:41;;;;;;;37.10;21.77;;;;;;;6.63;100.00;98618.84;5109792;28;20221;-59
2023/03/08 02:32:08;;;;;;;37.70;20.80;;;;;;;6.59;100.00;98618.06;5109922;28;20190;-59
2023/03/08 02:34:36;;;;;;;37.57;22.13;;;;;;;6.56;100.00;98616.41;5110198;28;20689;-60
2023/03/08 02:37:03;;;;;;;32.97;20.63;;;;;;;6.49;100.00;98635.53;5110000;28;20202;-59
2023/03/08 02:39:30;;;;;;;40.53;22.00;;;;;;;6.44;100.00;98646.81;5109591;28;20730;-59
2023/03/08 02:41:58;;;;;;;32.87;20.20;;;;;;;6.31;100.00;98653.22;5109860;28;20195;-60
2023/03/08 02:44:25;;;;;;;38.30;20.80;;;;;;;6.35;100.00;98653.06;5110074;28;20582;-61
2023/03/08 02:46:52;;;;;;;35.53;20.37;;;;;;;6.34;100.00;98645.38;5110760;28;20201;-59
2023/03/08 02:49:20;;;;;;;27.00;17.40;;;;;;;6.32;100.00;98637.69;5114054;28;20194;-60
2023/03/08 02:51:46;;;;;;;28.30;16.87;;;;;;;6.27;100.00;98647.28;5114110;28;20209;-59
2023/03/08 02:54:13;;;;;;;29.73;15.50;;;;;;;6.35;100.00;98647.91;5113755;28;20221;-58
2023/03/08 02:56:40;;;;;;;22.03;14.20;;;;;;;6.24;100.00;98643.91;5113978;28;20191;-59
2023/03/08 02:59:08;;;;;;;26.53;15.37;;;;;;;6.06;100.00;98645.25;5113658;28;20190;-59
2023/03/08 03:01:36;;;;;;;24.90;14.80;;;;;;;6.14;100.00;98654.47;5113927;28;20710;-59
2023/03/08 03:04:03;;;;;;;20.87;14.40;;;;;;;6.28;100.00;98656.72;5113833;28;20194;-58
2023/03/08 03:06:29;;;;;;;23.17;14.00;;;;;;;6.22;100.00;98654.25;5113680;28;20194;-59
2023/03/08 03:08:56;;;;;;;21.97;14.23;;;;;;;6.21;100.00;98657.72;5113759;28;20202;-59
2023/03/08 03:11:24;;;;;;;25.73;15.37;;;;;;;6.21;100.00;98659.47;5113691;28;20194;-60
2023/03/08 03:13:55;;;;;;;21.80;14.13;;;;;;;6.19;100.00;98662.94;5113509;28;20199;-60
2023/03/08 03:16:24;;;;;;;26.93;15.17;;;;;;;6.09;100.00;98660.63;5113414;28;20234;-60
2023/03/08 03:18:52;;;;;;;24.33;14.87;;;;;;;6.10;100.00;98659.72;5113535;28;20191;-61
2023/03/08 03:21:19;;;;;;;21.40;14.47;;;;;;;6.10;100.00;98662.28;5113120;28;20295;-60
2023/03/08 03:23:47;;;;;;;21.33;13.87;;;;;;;6.10;100.00;98667.44;5113819;28;20202;-61
2023/03/08 03:26:16;;;;;;;21.00;13.70;;;;;;;6.05;100.00;98662.44;5113444;28;20670;-61
2023/03/08 03:28:43;;;;;;;22.70;14.17;;;;;;;6.20;100.00;98661.22;5113371;28;20585;-59
2023/03/08 03:31:13;;;;;;;22.20;14.20;;;;;;;6.21;100.00;98660.28;5113323;28;20670;-59
2023/03/08 03:33:41;;;;;;;23.10;14.63;;;;;;;6.14;100.00;98664.78;5113248;28;20564;-60
2023/03/08 03:36:12;;;;;;;22.97;14.53;;;;;;;6.14;100.00;98658.78;5113194;28;20210;-59
2023/03/08 03:38:39;;;;;;;24.37;14.40;;;;;;;5.97;100.00;98666.06;5113617;28;20567;-59
2023/03/08 03:41:08;;;;;;;23.00;14.97;;;;;;;5.93;100.00;98667.03;5112897;28;20220;-59
2023/03/08 03:43:35;;;;;;;23.73;13.67;;;;;;;5.79;100.00;98670.72;5112986;28;20187;-60
2023/03/08 03:46:04;;;;;;;23.50;13.97;;;;;;;5.90;100.00;98680.81;5113081;28;20202;-60
2023/03/08 03:48:34;;;;;;;21.40;13.97;;;;;;;6.01;100.00;98677.97;5112475;28;20234;-59
2023/03/08 03:51:04;;;;;;;25.33;15.30;;;;;;;6.00;100.00;98691.72;5113247;28;20198;-59
2023/03/08 03:53:33;;;;;;;25.90;14.40;;;;;;;5.90;100.00;98682.53;5113054;28;20203;-60
2023/03/08 03:56:04;;;;;;;25.10;14.40;;;;;;;5.84;100.00;98689.50;5113060;28;20195;-59
2023/03/08 03:58:31;;;;;;;24.43;15.00;;;;;;;5.91;100.00;98687.66;5112692;28;21003;-59
2023/03/08 04:00:58;;;;;;;23.13;15.27;;;;;;;5.93;100.00;98690.19;5112642;28;20597;-60
2023/03/08 04:03:25;;;;;;;25.80;15.07;;;;;;;5.88;100.00;98694.56;5112496;28;20202;-59
2023/03/08 04:05:52;;;;;;;23.37;14.00;;;;;;;5.99;100.00;98690.03;5112896;28;20966;-58
2023/03/08 04:08:20;;;;;;;23.00;14.50;;;;;;;5.97;100.00;98696.97;5112370;28;20205;-59
2023/03/08 04:10:47;;;;;;;24.27;14.37;;;;;;;6.00;100.00;98694.31;5112433;28;20195;-60
2023/03/08 04:13:14;;;;;;;28.77;16.20;;;;;;;5.95;100.00;98694.44;5112225;28;20194;-59
2023/03/08 04:15:41;;;;;;;25.20;15.43;;;;;;;5.91;100.00;98702.25;5112664;28;20670;-59
2023/03/08 04:18:08;;;;;;;23.47;15.53;;;;;;;5.96;100.00;98703.00;5112272;28;20195;-58
2023/03/08 04:20:34;;;;;;;24.23;15.37;;;;;;;6.02;100.00;98705.44;5111278;28;20214;-59
2023/03/08 04:23:01;;;;;;;27.53;16.13;;;;;;;6.03;100.00;98712.28;5112022;28;20206;-59
2023/03/08 04:25:30;;;;;;;25.70;16.17;;;;;;;6.05;100.00;98713.09;5112151;28;20261;-59
2023/03/08 04:27:56;;;;;;;29.73;17.73;;;;;;;5.98;100.00;98716.72;5111965;28;20202;-59
2023/03/08 04:30:23;;;;;;;26.47;16.07;;;;;;;5.98;100.00;98725.25;5111824;28;20190;-59
2023/03/08 04:32:50;;;;;;;25.43;15.53;;;;;;;5.89;100.00;98729.78;5111783;28;20578;-59
2023/03/08 04:35:18;;;;;;;26.00;15.33;;;;;;;5.93;100.00;98727.09;5111453;28;20285;-60
2023/03/08 04:37:45;;;;;;;23.07;14.87;;;;;;;5.96;100.00;98719.31;5111998;28;20221;-59
2023/03/08 04:40:13;;;;;;;28.63;16.60;;;;;;;5.93;100.00;98728.81;5111577;28;20234;-61
2023/03/08 04:42:41;;;;;;;25.00;16.37;;;;;;;5.82;100.00;98714.44;5111689;28;20602;-60
2023/03/08 04:45:09;;;;;;;26.63;16.07;;;;;;;5.82;100.00;98729.03;5112108;28;20685;-59
2023/03/08 04:47:36;;;;;;;27.10;16.50;;;;;;;5.78;100.00;98723.09;5111651;28;20230;-59
2023/03/08 04:50:03;;;;;;;32.03;17.03;;;;;;;5.79;100.00;98719.66;5111935;28;20197;-60
2023/03/08 04:52:30;;;;;;;27.57;16.80;;;;;;;5.72;100.00;98707.81;5111669;28;20197;-61
2023/03/08 04:54:57;;;;;;;29.40;16.50;;;;;;;5.73;100.00;98704.34;5111576;28;20706;-61
2023/03/08 04:57:24;;;;;;;21.17;14.80;;;;;;;5.73;100.00;98712.06;5111412;28;20238;-61
2023/03/08 04:59:52;;;;;;;26.47;15.37;;;;;;;5.74;100.00;98715.50;5111466;28;20202;-59
2023/03/08 05:02:19;;;;;;;25.20;14.33;;;;;;;5.80;100.00;98720.50;5110976;28;20194;-60
2023/03/08 05:04:46;;;;;;;22.30;14.20;;;;;;;5.80;100.00;98718.75;5111428;28;20190;-61
2023/03/08 05:07:13;;;;;;;23.10;12.90;;;;;;;5.86;100.00;98722.94;5109507;28;20226;-61
2023/03/08 05:09:42;;;;;;;17.77;13.10;;;;;;;5.65;100.00;98695.94;5089048;28;20227;-64
2023/03/08 05:12:10;;;;;;;14.90;11.93;;;;;;;5.83;100.00;98713.56;5097399;28;20289;-63
2023/03/08 05:14:37;;;;;;;18.00;12.70;;;;;;;6.01;100.00;98719.19;5089626;28;20219;-63
2023/03/08 05:17:05;;;;;;;19.10;13.03;;;;;;;6.07;100.00;98724.22;5108917;28;20309;-64
2023/03/08 05:19:32;;;;;;;24.43;13.40;;;;;;;6.16;100.00;98734.31;5109711;28;20223;-64
2023/03/08 05:21:59;;;;;;;18.13;13.10;;;;;;;6.23;100.00;98734.97;5110231;28;20704;-64
2023/03/08 05:24:26;;;;;;;20.33;12.53;;;;;;;6.28;100.00;98739.16;5110012;28;20222;-62
2023/03/08 05:26:53;;;;;;;24.83;14.13;;;;;;;6.39;100.00;98736.31;5110007;28;20226;-62
2023/03/08 05:29:21;;;;;;;23.40;12.50;;;;;;;6.34;100.00;98733.00;5108961;28;20305;-65
2023/03/08 05:31:49;;;;;;;24.40;13.47;;;;;;;6.31;100.00;98736.53;5110473;28;20195;-65
2023/03/08 05:34:18;;;;;;;22.27;14.07;;;;;;;6.29;100.00;98742.59;5109557;28;20205;-65
2023/03/08 05:36:45;;;;;;;21.27;13.43;;;;;;;6.30;100.00;98732.25;5110940;28;20231;-62
2023/03/08 05:39:12;;;;;;;22.07;13.93;;;;;;;6.46;100.00;98733.56;5110681;28;20194;-62
2023/03/08 05:41:38;;;;;;;22.03;14.03;;;;;;;7.26;100.00;98740.88;5110902;28;20795;-61
2023/03/08 05:44:06;;;;;;;28.83;14.73;;;;;;;8.90;95.92;98747.03;5110900;28;20195;-62
2023/03/08 05:46:33;;;;;;;23.83;14.50;;;;;;;10.71;82.04;98746.19;5110392;28;20194;-61
2023/03/08 05:49:00;;;;;;;20.37;13.07;;;;;;;12.23;70.61;98752.38;5108987;28;20202;-62
2023/03/08 05:51:28;;;;;;;21.33;13.20;;;;;;;13.93;62.92;98765.41;5110662;28;20666;-65
2023/03/08 05:53:55;;;;;;;21.37;14.13;;;;;;;15.66;55.14;98773.69;5110605;28;20206;-60
2023/03/08 05:56:23;;;;;;;21.13;13.50;;;;;;;17.39;49.12;98766.78;5109781;28;20201;-63
2023/03/08 05:58:51;;;;;;;18.60;11.93;;;;;;;18.67;45.11;98795.31;5110002;28;20186;-61
2023/03/08 06:01:20;;;;;;;18.43;12.23;;;;;;;19.53;42.58;98793.19;5110333;28;20221;-66
2023/03/08 06:03:48;;;;;;;18.30;12.32;;;;;;;20.34;39.96;98799.16;5110805;28;20203;-62
2023/03/08 06:06:16;;;;;;;21.23;13.45;;;;;;;21.02;38.45;98804.13;5110162;28;20194;-62
2023/03/08 06:08:44;;;;;;;18.60;11.60;;;;;;;21.16;37.20;98801.19;5110262;28;20198;-63
2023/03/08 06:11:11;;;;;;;18.05;11.77;;;;;;;21.59;36.52;98803.69;5110410;28;20566;-62
2023/03/08 06:13:38;;;;;;;13.52;11.23;;;;;;;22.14;35.55;98820.09;5110478;28;20209;-62
2023/03/08 06:16:06;;;;;;;15.95;11.43;;;;;;;23.20;33.58;98822.94;5110331;28;20217;-66
2023/03/08 06:18:33;;;;;;;12.50;11.15;;;;;;;23.19;33.37;98823.91;5110056;28;20197;-63
2023/03/08 06:21:02;;;;;;;14.88;11.48;;;;;;;23.85;32.18;98821.28;5109429;28;20226;-63
2023/03/08 06:23:30;;;;;;;14.57;10.98;;;;;;;24.29;31.40;98814.41;5110033;28;20202;-65
2023/03/08 06:25:59;;;;;;;11.70;10.45;;;;;;;24.68;30.44;98809.72;5110453;28;20190;-63
2023/03/08 06:28:28;;;;;;;10.35;9.45;;;;;;;24.53;30.07;98827.97;5109946;28;20198;-65
2023/03/08 06:30:55;;;;;;;17.90;11.00;;;;;;;24.61;30.57;98817.44;5110498;28;20289;-62
2023/03/08 06:33:31;;;;;;;13.63;10.27;;;;;;;24.97;29.51;98828.09;5110858;28;20194;-63
2023/03/08 06:36:04;;;;;;;14.02;10.15;;;;;;;24.16;30.26;98835.94;5110764;28;20197;-65
2023/03/08 06:38:32;;;;;;;14.50;8.95;;;;;;;24.43;30.15;98837.81;5110792;28;20203;-65
2023/03/08 06:41:01;;;;;;;11.80;10.25;;;;;;;23.78;30.55;98844.88;5110525;28;20229;-65
2023/03/08 06:43:29;;;;;;;14.00;9.95;;;;;;;24.50;30.08;98859.25;5110453;28;20194;-63
2023/03/08 06:45:56;;;;;;;11.82;10.23;;;;;;;25.07;29.07;98858.06;5110600;28;20285;-66
2023/03/08 06:48:24;;;;;;;11.68;10.45;;;;;;;25.47;28.72;98873.53;5108765;28;20241;-65
2023/03/08 06:50:51;;;;;;;11.43;10.30;;;;;;;25.93;28.17;98877.72;5108483;28;20191;-63
2023/03/08 06:53:18;;;;;;;12.48;9.75;;;;;;;26.57;27.35;98871.06;5108389;28;20194;-63
2023/03/08 06:55:44;;;;;;;13.85;9.82;;;;;;;27.00;26.41;98871.84;5108337;28;20299;-63
2023/03/08 06:58:13;;;;;;;19.55;9.55;;;;;;;26.72;26.89;98885.41;5107267;28;20202;-63
2023/03/08 07:00:40;;;;;;;14.27;9.90;;;;;;;26.13;27.99;98875.66;5108470;28;20190;-67
2023/03/08 07:03:07;;;;;;;10.85;9.75;;;;;;;26.48;27.04;98880.00;5106371;28;20301;-63
2023/03/08 07:05:33;;;;;;;14.50;9.48;;;;;;;26.98;26.53;98884.50;5109504;28;20788;-62
2023/03/08 07:08:00;;;;;;;11.25;9.45;;;;;;;27.25;26.13;98891.38;5109677;28;20195;-62
2023/03/08 07:10:27;;;;;;;11.73;9.63;;;;;;;28.07;25.48;98872.50;5109307;28;20241;-63
2023/03/08 07:12:54;;;;;;;13.23;9.65;;;;;;;28.76;25.00;98889.63;5110016;28;20195;-63
2023/03/08 07:15:23;;;;;;;11.00;9.80;;;;;;;29.70;23.94;98888.47;5109430;28;20195;-63
2023/03/08 07:17:54;;;;;;;10.43;9.35;;;;;;;29.11;24.07;98888.25;5109417;28;20205;-63
2023/03/08 07:20:23;;;;;;;13.20;10.02;;;;;;;28.51;24.47;98885.38;5108661;28;20259;-63
2023/03/08 07:22:50;;;;;;;10.80;9.57;;;;;;;28.90;24.71;98890.72;5108125;28;20206;-63
2023/03/08 07:25:19;;;;;;;9.93;8.93;;;;;;;29.29;23.98;98895.97;5107901;28;20197;-63
2023/03/08 07:27:47;;;;;;;17.25;10.18;;;;;;;27.79;25.12;98876.56;5108172;28;20202;-63
2023/03/08 07:30:16;;;;;;;11.15;9.82;;;;;;;25.90;27.18;98877.19;5109418;28;20206;-65
2023/03/08 07:32:44;;;;;;;9.40;8.23;;;;;;;23.71;29.76;98875.56;5110308;28;20191;-66
2023/03/08 07:35:13;;;;;;;9.70;8.68;;;;;;;21.29;32.90;98867.84;5113518;28;20201;-61
2023/03/08 07:37:40;;;;;;;8.85;7.43;;;;;;;19.16;36.50;98868.81;5113133;28;20205;-62
2023/03/08 07:40:09;;;;;;;10.93;8.20;;;;;;;17.82;39.16;98872.31;5113272;28;20191;-62
2023/03/08 07:42:36;;;;;;;10.93;9.82;;;;;;;16.90;41.47;98861.00;5112872;28;20283;-65
2023/03/08 07:45:03;;;;;;;10.27;9.18;;;;;;;16.34;42.90;98862.81;5113065;28;20204;-62
2023/03/08 07:47:30;;;;;;;16.35;8.60;;;;;;;15.95;44.46;98859.09;5112718;28;20226;-62
2023/03/08 07:49:59;;;;;;;11.65;8.77;;;;;;;16.03;44.81;98861.22;5110723;28;20267;-61
2023/03/08 07:52:27;;;;;;;11.45;8.45;;;;;;;15.73;46.97;98848.25;5102241;28;20682;-62
2023/03/08 07:54:54;;;;;;;11.80;9.07;;;;;;;15.98;46.87;98855.44;5092232;28;20210;-61
2023/03/08 07:57:21;;;;;;;13.80;10.73;;;;;;;16.02;45.93;98853.50;5092362;28;20195;-65
2023/03/08 07:59:48;;;;;;;12.10;10.40;;;;;;;16.21;45.86;98861.88;5092767;28;20218;-62
2023/03/08 08:02:15;;;;;;;11.23;9.73;;;;;;;16.21;45.65;98854.03;5092229;28;20301;-62
2023/03/08 08:04:42;;;;;;;12.50;9.03;;;;;;;16.10;46.15;98849.47;5092091;28;20195;-62
2023/03/08 08:07:14;;;;;;;17.63;10.70;;;;;;;16.23;45.88;98852.16;5091119;28;20225;-62
2023/03/08 08:09:41;;;;;;;13.37;10.10;;;;;;;16.33;46.05;98861.13;5091411;28;20222;-61
2023/03/08 08:12:08;;;;;;;13.97;9.53;;;;;;;16.25;46.28;98843.25;5091147;28;20215;-65
2023/03/08 08:14:35;;;;;;;17.07;11.20;;;;;;;16.27;46.67;98843.16;5091508;28;20227;-61
2023/03/08 08:17:04;;;;;;;13.90;10.33;;;;;;;16.36;46.28;98839.97;5091647;28;20673;-63
2023/03/08 08:19:31;;;;;;;15.57;10.30;;;;;;;16.43;46.14;98843.03;5098929;28;20229;-64
2023/03/08 08:21:58;;;;;;;16.10;10.33;;;;;;;16.59;45.52;98849.81;5111576;27;20227;-65
2023/03/08 08:24:27;;;;;;;11.60;10.37;;;;;;;16.04;46.66;98841.97;5112202;28;20198;-65
2023/03/08 08:26:55;;;;;;;16.20;10.47;;;;;;;16.10;47.11;98835.53;5112366;28;20197;-61
2023/03/08 08:29:21;;;;;;;15.13;10.87;;;;;;;16.09;46.75;98839.91;5111972;28;20197;-61
2023/03/08 08:31:51;;;;;;;15.03;11.47;;;;;;;16.19;46.97;98846.25;5112120;28;20283;-65
2023/03/08 08:34:18;;;;;;;14.97;12.23;;;;;;;15.99;47.22;98833.56;5111743;28;20194;-65
2023/03/08 08:36:45;;;;;;;15.33;11.03;;;;;;;16.27;46.94;98853.63;5112002;28;20201;-65
2023/03/08 08:39:12;;;;;;;14.33;10.20;;;;;;;16.29;47.17;98857.00;5112513;28;20191;-62
2023/03/08 08:41:41;;;;;;;17.47;10.33;;;;;;;16.33;46.71;98858.50;5112119;28;20219;-65
2023/03/08 08:44:08;;;;;;;17.97;10.10;;;;;;;16.27;47.24;98854.47;5111446;28;20195;-61
2023/03/08 08:46:34;;;;;;;11.67;10.17;;;;;;;16.07;47.43;98835.72;5111151;28;20213;-61
2023/03/08 08:49:04;;;;;;;14.17;10.57;;;;;;;16.33;47.12;98867.19;5111926;28;20209;-62
2023/03/08 08:51:31;;;;;;;13.97;9.63;;;;;;;16.33;46.70;98855.88;5111673;28;20194;-63
2023/03/08 08:53:58;;;;;;;11.43;8.57;;;;;;;16.34;47.24;98857.56;5110984;28;20604;-62
2023/03/08 08:56:26;;;;;;;7.97;7.17;;;;;;;16.16;46.96;98856.06;5110026;28;20201;-61
2023/03/08 08:58:55;;;;;;;9.67;7.43;;;;;;;16.18;47.79;98838.50;5107656;28;20195;-64
2023/03/08 09:01:26;;;;;;;9.17;6.80;;;;;;;16.41;47.08;98852.78;5110429;28;20190;-65
2023/03/08 09:03:53;;;;;;;8.07;7.20;;;;;;;16.41;47.46;98851.00;5111496;28;20202;-65
2023/03/08 09:06:22;;;;;;;10.83;7.33;;;;;;;16.33;47.83;98848.03;5111541;28;20203;-65
2023/03/08 09:08:50;;;;;;;13.80;6.90;;;;;;;16.35;47.23;98838.31;5111694;28;20237;-65
2023/03/08 09:11:17;;;;;;;10.10;6.27;;;;;;;16.51;46.85;98832.91;5110967;28;20198;-65
2023/03/08 09:13:44;;;;;;;7.80;4.67;;;;;;;16.32;45.83;98826.22;5109757;27;20198;-64
2023/03/08 09:16:19;;;;;;;6.17;5.57;;;;;;;16.27;45.87;98824.81;5092912;28;20609;-62
2023/03/08 09:18:46;;;;;;;8.23;5.63;;;;;;;16.36;45.88;98819.03;5110150;28;20218;-62
2023/03/08 09:21:14;;;;;;;9.57;5.47;;;;;;;16.57;46.86;98812.41;5108864;28;20216;-60
2023/03/08 09:23:41;;;;;;;5.53;4.80;;;;;;;16.60;44.62;98799.09;5106987;28;20222;-62
2023/03/08 09:26:08;;;;;;;5.00;4.60;;;;;;;16.69;43.95;98811.66;5109981;28;20223;-61
2023/03/08 09:28:36;;;;;;;6.63;5.43;;;;;;;16.80;43.93;98807.50;5109718;28;20226;-62
2023/03/08 09:31:10;;;;;;;6.13;5.57;;;;;;;16.84;43.83;98808.97;5109567;28;20194;-63
2023/03/08 09:33:39;;;;;;;5.27;4.73;;;;;;;16.51;44.13;98801.47;5109949;28;20281;-62
2023/03/08 09:36:06;;;;;;;7.33;5.57;;;;;;;16.62;44.76;98806.91;5109916;28;20197;-62
2023/03/08 09:38:33;;;;;;;6.47;5.73;;;;;;;16.66;44.94;98801.38;5107651;28;20201;-63
2023/03/08 09:41:14;;;;;;;6.72;5.97;;;;;;;16.77;45.15;98794.59;5107990;28;20205;-64
2023/03/08 09:43:47;;;;;;;6.43;5.13;;;;;;;16.88;44.67;98805.22;5110037;28;20309;-63
2023/03/08 09:46:16;;;;;;;5.97;5.37;;;;;;;17.01;44.47;98806.09;5110150;28;20226;-62
2023/03/08 09:48:49;;;;;;;9.98;5.38;;;;;;;17.14;43.72;98806.13;5109939;28;20722;-63
2023/03/08 09:51:19;;;;;;;5.45;4.95;;;;;;;17.22;43.82;98807.28;5110057;28;20694;-62
2023/03/08 09:53:53;;;;;;;5.15;4.70;;;;;;;17.32;42.91;98808.31;5109993;28;20201;-63
2023/03/08 09:56:26;;;;;;;6.80;4.82;;;;;;;17.45;41.81;98810.13;5109611;28;20292;-63
2023/03/08 09:58:58;;;;;;;5.55;4.95;;;;;;;17.62;42.22;98809.78;5110259;28;20583;-62
2023/03/08 10:01:36;;;;;;;5.55;5.05;;;;;;;17.90;42.05;98801.72;5109535;28;20510;-62
2023/03/08 10:04:39;;;;;;;5.68;4.78;;;;;;;18.22;41.37;98809.13;5109897;28;20193;-62
2023/03/08 10:07:31;;;;;;;5.65;4.55;;;;;;;18.41;41.07;98796.34;5109888;28;20589;-63
2023/03/08 10:10:13;;;;;;;8.93;4.93;;;;;;;18.44;39.71;98798.75;5109685;28;20214;-61
2023/03/08 10:12:49;;;;;;;6.93;4.35;;;;;;;18.46;39.73;98802.13;5109577;28;20191;-62
2023/03/08 10:15:19;;;;;;;4.55;4.15;;;;;;;18.40;39.79;98799.91;5108958;28;20201;-64
2023/03/08 10:17:51;;;;;;;5.50;4.95;;;;;;;18.47;39.79;98798.53;5108742;28;20285;-61
2023/03/08 10:20:24;;;;;;;5.18;4.68;;;;;;;18.55;39.67;98796.19;5107408;28;20572;-65
2023/03/08 10:22:57;;;;;;;7.53;5.53;;;;;;;18.75;39.62;98792.97;5111278;28;20214;-66
2023/03/08 10:25:27;;;;;;;6.07;5.68;;;;;;;18.96;39.19;98795.78;5110759;28;20206;-66
2023/03/08 10:27:56;;;;;;;8.68;6.57;;;;;;;19.03;38.87;98786.50;5112292;28;20614;-65
2023/03/08 10:30:26;;;;;;;5.05;4.65;;;;;;;19.05;38.07;98789.03;5109842;28;20190;-65
2023/03/08 10:32:58;;;;;;;5.82;5.07;;;;;;;19.07;37.90;98781.88;5109897;28;20194;-63
2023/03/08 10:35:35;;;;;;;5.03;4.43;;;;;;;18.80;37.81;98782.13;5109749;28;20600;-66
2023/03/08 10:38:02;;;;;;;6.20;4.50;;;;;;;18.75;37.26;98774.56;5106429;28;20229;-63
2023/03/08 10:40:30;;;;;;;4.47;4.07;;;;;;;18.67;36.73;98757.69;5109106;28;20222;-63
2023/03/08 10:43:00;;;;;;;4.28;3.97;;;;;;;18.63;36.87;98762.31;5108291;28;20226;-65
2023/03/08 10:45:28;;;;;;;4.60;4.20;;;;;;;18.80;36.56;98755.81;5109119;28;20249;-61
2023/03/08 10:47:57;;;;;;;4.95;4.00;;;;;;;19.02;35.92;98762.94;5108425;28;20244;-66
2023/03/08 10:50:26;;;;;;;3.15;2.85;;;;;;;19.20;33.71;98761.53;5109795;28;20674;-65
2023/03/08 10:52:55;;;;;;;3.58;2.92;;;;;;;19.29;33.37;98755.59;5109224;28;20213;-65
2023/03/08 10:55:23;;;;;;;2.63;2.42;;;;;;;19.43;32.61;98749.25;5109383;28;20191;-62
2023/03/08 10:57:53;;;;;;;3.08;2.88;;;;;;;19.28;33.29;98738.13;5109187;28;20209;-62
2023/03/08 11:00:33;;;;;;;3.72;3.42;;;;;;;19.39;33.58;98746.03;5108912;28;20194;-65
2023/03/08 11:03:12;;;;;;;3.70;3.30;;;;;;;19.42;33.43;98740.53;5088382;28;20245;-62
2023/03/08 11:05:40;;;;;;;5.50;3.00;;;;;;;19.39;33.46;98730.25;5088658;28;20202;-61
2023/03/08 11:08:19;;;;;;;3.47;2.97;;;;;;;19.42;33.06;98735.25;5089851;28;20187;-62
2023/03/08 11:10:45;;;;;;;3.10;2.90;;;;;;;19.42;32.61;98729.16;5107563;28;20198;-62
2023/03/08 11:13:24;;;;;;;2.95;2.60;;;;;;;19.29;32.88;98723.19;5113129;28;20197;-62
2023/03/08 11:15:58;;;;;;;3.15;2.92;;;;;;;19.12;33.20;98717.41;5113597;28;20268;-62
2023/03/08 11:18:37;;;;;;;4.00;3.45;;;;;;;19.10;33.70;98723.75;5113235;28;20553;-66
2023/03/08 11:21:12;;;;;;;5.38;3.42;;;;;;;18.98;33.73;98720.25;5113450;28;20194;-65
2023/03/08 11:23:49;;;;;;;5.45;4.30;;;;;;;18.84;34.02;98713.44;5113469;28;20214;-62
2023/03/08 11:26:24;;;;;;;3.47;3.13;;;;;;;18.59;33.98;98703.06;5113593;28;20213;-62
2023/03/08 11:29:03;;;;;;;3.13;2.92;;;;;;;18.45;34.11;98687.44;5113372;28;20198;-65